sensor_id;sensor_type;location;lat;lon;timestamp;temperature;humidity
66088;DHT22;52872;52.994;6.940;2024-02-28T00:02:06;2.40;99.90
66088;DHT22;52872;52.994;6.940;2024-02-28T00:04:33;2.40;99.90
66088;DHT22;52872;52.994;6.940;2024-02-28T00:07:00;2.40;99.90
66088;DHT22;52872;52.994;6.940;2024-02-28T00:09:27;2.50;99.90
66088;DHT22;52872;52.994;6.940;2024-02-28T00:11:54;2.40;99.90
66088;DHT22;52872;52.994;6.940;2024-02-28T00:14:21;2.50;99.90
66088;DHT22;52872;52.994;6.940;2024-02-28T00:16:48;2.40;99.90
66088;DHT22;52872;52.994;6.940;2024-02-28T00:19:15;2.50;99.90
66088;DHT22;52872;52.994;6.940;2024-02-28T00:21:44;2.40;99.90
66088;DHT22;52872;52.994;6.940;2024-02-28T00:24:11;2.40;99.90
66088;DHT22;52872;52.994;6.940;2024-02-28T00:26:42;2.50;99.90
66088;DHT22;52872;52.994;6.940;2024-02-28T00:29:10;2.50;99.90
66088;DHT22;52872;52.994;6.940;2024-02-28T00:31:37;2.50;99.90
66088;DHT22;52872;52.994;6.940;2024-02-28T00:34:04;2.50;99.90
66088;DHT22;52872;52.994;6.940;2024-02-28T00:36:30;2.60;99.90
66088;DHT22;52872;52.994;6.940;2024-02-28T00:39:05;2.50;99.90
66088;DHT22;52872;52.994;6.940;2024-02-28T00:41:32;2.60;99.90
66088;DHT22;52872;52.994;6.940;2024-02-28T00:43:59;2.60;99.90
66088;DHT22;52872;52.994;6.940;2024-02-28T00:46:26;2.80;99.90
66088;DHT22;52872;52.994;6.940;2024-02-28T00:48:52;2.60;99.90
66088;DHT22;52872;52.994;6.940;2024-02-28T00:51:19;2.60;99.90
66088;DHT22;52872;52.994;6.940;2024-02-28T00:53:46;2.60;99.90
66088;DHT22;52872;52.994;6.940;2024-02-28T00:56:13;2.70;99.90
66088;DHT22;52872;52.994;6.940;2024-02-28T00:58:40;2.80;99.90
66088;DHT22;52872;52.994;6.940;2024-02-28T01:01:07;2.70;99.90
66088;DHT22;52872;52.994;6.940;2024-02-28T01:03:34;2.80;99.90
66088;DHT22;52872;52.994;6.940;2024-02-28T01:06:01;2.80;99.90
66088;DHT22;52872;52.994;6.940;2024-02-28T01:08:30;2.80;99.90
66088;DHT22;52872;52.994;6.940;2024-02-28T01:10:57;2.90;99.90
66088;DHT22;52872;52.994;6.940;2024-02-28T01:13:25;3.10;99.90
66088;DHT22;52872;52.994;6.940;2024-02-28T01:15:52;2.90;99.90
66088;DHT22;52872;52.994;6.940;2024-02-28T01:18:20;2.90;99.90
66088;DHT22;52872;52.994;6.940;2024-02-28T01:20:47;2.90;99.90
66088;DHT22;52872;52.994;6.940;2024-02-28T01:23:14;2.90;99.90
66088;DHT22;52872;52.994;6.940;2024-02-28T01:25:42;2.90;99.90
66088;DHT22;52872;52.994;6.940;2024-02-28T01:28:08;2.90;99.90
66088;DHT22;52872;52.994;6.940;2024-02-28T01:30:35;2.90;99.90
66088;DHT22;52872;52.994;6.940;2024-02-28T01:33:03;3.00;99.90
66088;DHT22;52872;52.994;6.940;2024-02-28T01:35:30;3.00;99.90
66088;DHT22;52872;52.994;6.940;2024-02-28T01:37:57;3.00;99.90
66088;DHT22;52872;52.994;6.940;2024-02-28T01:40:24;3.00;99.90
66088;DHT22;52872;52.994;6.940;2024-02-28T01:42:51;3.00;99.90
66088;DHT22;52872;52.994;6.940;2024-02-28T01:45:18;3.00;99.90
66088;DHT22;52872;52.994;6.940;2024-02-28T01:47:45;3.00;99.90
66088;DHT22;52872;52.994;6.940;2024-02-28T01:50:12;3.00;99.90
66088;DHT22;52872;52.994;6.940;2024-02-28T01:52:40;3.00;99.90
66088;DHT22;52872;52.994;6.940;2024-02-28T01:55:08;3.00;99.90
66088;DHT22;52872;52.994;6.940;2024-02-28T01:57:37;3.00;99.90
66088;DHT22;52872;52.994;6.940;2024-02-28T02:00:06;3.00;99.90
66088;DHT22;52872;52.994;6.940;2024-02-28T02:02:35;3.00;99.90
66088;DHT22;52872;52.994;6.940;2024-02-28T02:05:02;3.00;99.90
66088;DHT22;52872;52.994;6.940;2024-02-28T02:07:30;3.00;99.90
66088;DHT22;52872;52.994;6.940;2024-02-28T02:09:57;3.00;99.90
66088;DHT22;52872;52.994;6.940;2024-02-28T02:12:24;3.00;99.90
66088;DHT22;52872;52.994;6.940;2024-02-28T02:14:52;3.00;99.90
66088;DHT22;52872;52.994;6.940;2024-02-28T02:17:19;3.00;99.90
66088;DHT22;52872;52.994;6.940;2024-02-28T02:19:46;3.00;99.90
66088;DHT22;52872;52.994;6.940;2024-02-28T02:22:14;3.00;99.90
66088;DHT22;52872;52.994;6.940;2024-02-28T02:24:41;3.00;99.90
66088;DHT22;52872;52.994;6.940;2024-02-28T02:27:08;3.00;99.90
66088;DHT22;52872;52.994;6.940;2024-02-28T02:29:35;2.90;99.90
66088;DHT22;52872;52.994;6.940;2024-02-28T02:32:03;3.00;99.90
66088;DHT22;52872;52.994;6.940;2024-02-28T02:34:30;3.00;99.90
66088;DHT22;52872;52.994;6.940;2024-02-28T02:36:57;3.00;99.90
66088;DHT22;52872;52.994;6.940;2024-02-28T02:39:24;3.00;99.90
66088;DHT22;52872;52.994;6.940;2024-02-28T02:41:51;3.10;99.90
66088;DHT22;52872;52.994;6.940;2024-02-28T02:44:18;3.00;99.90
66088;DHT22;52872;52.994;6.940;2024-02-28T02:46:45;3.10;99.90
66088;DHT22;52872;52.994;6.940;2024-02-28T02:49:12;3.00;99.90
66088;DHT22;52872;52.994;6.940;2024-02-28T02:51:39;3.00;99.90
66088;DHT22;52872;52.994;6.940;2024-02-28T02:54:09;3.10;99.90
66088;DHT22;52872;52.994;6.940;2024-02-28T02:56:36;3.10;99.90
66088;DHT22;52872;52.994;6.940;2024-02-28T02:59:03;3.00;99.90
66088;DHT22;52872;52.994;6.940;2024-02-28T03:01:30;3.00;99.90
66088;DHT22;52872;52.994;6.940;2024-02-28T03:03:57;3.00;99.90
66088;DHT22;52872;52.994;6.940;2024-02-28T03:06:24;3.10;99.90
66088;DHT22;52872;52.994;6.940;2024-02-28T03:08:51;3.10;99.90
66088;DHT22;52872;52.994;6.940;2024-02-28T03:11:18;3.10;99.90
66088;DHT22;52872;52.994;6.940;2024-02-28T03:13:45;3.10;99.90
66088;DHT22;52872;52.994;6.940;2024-02-28T03:16:12;3.20;99.90
66088;DHT22;52872;52.994;6.940;2024-02-28T03:18:39;3.10;99.90
66088;DHT22;52872;52.994;6.940;2024-02-28T03:21:06;3.10;99.90
66088;DHT22;52872;52.994;6.940;2024-02-28T03:23:33;3.10;99.90
66088;DHT22;52872;52.994;6.940;2024-02-28T03:26:02;3.10;99.90
66088;DHT22;52872;52.994;6.940;2024-02-28T03:28:30;3.10;99.90
66088;DHT22;52872;52.994;6.940;2024-02-28T03:30:57;3.10;99.90
66088;DHT22;52872;52.994;6.940;2024-02-28T03:33:24;3.10;99.90
66088;DHT22;52872;52.994;6.940;2024-02-28T03:35:52;3.10;99.90
66088;DHT22;52872;52.994;6.940;2024-02-28T03:38:18;3.10;99.90
66088;DHT22;52872;52.994;6.940;2024-02-28T03:40:45;3.10;99.90
66088;DHT22;52872;52.994;6.940;2024-02-28T03:43:12;3.10;99.90
66088;DHT22;52872;52.994;6.940;2024-02-28T03:45:40;3.10;99.90
66088;DHT22;52872;52.994;6.940;2024-02-28T03:48:07;3.10;99.90
66088;DHT22;52872;52.994;6.940;2024-02-28T03:50:34;3.10;99.90
66088;DHT22;52872;52.994;6.940;2024-02-28T03:53:01;3.00;99.90
66088;DHT22;52872;52.994;6.940;2024-02-28T03:55:29;3.10;99.90
66088;DHT22;52872;52.994;6.940;2024-02-28T03:57:56;3.00;99.90
66088;DHT22;52872;52.994;6.940;2024-02-28T04:00:23;3.10;99.90
66088;DHT22;52872;52.994;6.940;2024-02-28T04:02:50;3.00;99.90
66088;DHT22;52872;52.994;6.940;2024-02-28T04:05:17;3.10;99.90
66088;DHT22;52872;52.994;6.940;2024-02-28T04:07:44;3.10;99.90
66088;DHT22;52872;52.994;6.940;2024-02-28T04:10:11;3.10;99.90
66088;DHT22;52872;52.994;6.940;2024-02-28T04:12:38;3.10;99.90
66088;DHT22;52872;52.994;6.940;2024-02-28T04:15:05;3.10;99.90
66088;DHT22;52872;52.994;6.940;2024-02-28T04:17:32;3.10;99.90
66088;DHT22;52872;52.994;6.940;2024-02-28T04:19:59;3.10;99.90
66088;DHT22;52872;52.994;6.940;2024-02-28T04:22:31;3.20;99.90
66088;DHT22;52872;52.994;6.940;2024-02-28T04:24:58;3.10;99.90
66088;DHT22;52872;52.994;6.940;2024-02-28T04:27:25;3.10;99.90
66088;DHT22;52872;52.994;6.940;2024-02-28T04:29:52;3.10;99.90
66088;DHT22;52872;52.994;6.940;2024-02-28T04:32:19;3.10;99.90
66088;DHT22;52872;52.994;6.940;2024-02-28T04:34:46;3.10;99.90
66088;DHT22;52872;52.994;6.940;2024-02-28T04:37:13;3.10;99.90
66088;DHT22;52872;52.994;6.940;2024-02-28T04:39:41;3.10;99.90
66088;DHT22;52872;52.994;6.940;2024-02-28T04:42:08;3.10;99.90
66088;DHT22;52872;52.994;6.940;2024-02-28T04:44:35;3.10;99.90
66088;DHT22;52872;52.994;6.940;2024-02-28T04:47:02;3.10;99.90
66088;DHT22;52872;52.994;6.940;2024-02-28T04:49:29;3.10;99.90
66088;DHT22;52872;52.994;6.940;2024-02-28T04:51:56;3.10;99.90
66088;DHT22;52872;52.994;6.940;2024-02-28T04:54:23;3.10;99.90
66088;DHT22;52872;52.994;6.940;2024-02-28T04:56:51;3.10;99.90
66088;DHT22;52872;52.994;6.940;2024-02-28T04:59:18;3.10;99.90
66088;DHT22;52872;52.994;6.940;2024-02-28T05:01:45;3.10;99.90
66088;DHT22;52872;52.994;6.940;2024-02-28T05:04:13;3.10;99.90
66088;DHT22;52872;52.994;6.940;2024-02-28T05:06:39;3.10;99.90
66088;DHT22;52872;52.994;6.940;2024-02-28T05:09:07;3.10;99.90
66088;DHT22;52872;52.994;6.940;2024-02-28T05:11:34;3.10;99.90
66088;DHT22;52872;52.994;6.940;2024-02-28T05:14:01;3.10;99.90
66088;DHT22;52872;52.994;6.940;2024-02-28T05:16:28;3.00;99.90
66088;DHT22;52872;52.994;6.940;2024-02-28T05:18:55;3.00;99.90
66088;DHT22;52872;52.994;6.940;2024-02-28T05:21:22;3.00;99.90
66088;DHT22;52872;52.994;6.940;2024-02-28T05:23:49;3.00;99.90
66088;DHT22;52872;52.994;6.940;2024-02-28T05:26:16;3.00;99.90
66088;DHT22;52872;52.994;6.940;2024-02-28T05:28:43;3.00;99.90
66088;DHT22;52872;52.994;6.940;2024-02-28T05:31:21;3.00;99.90
66088;DHT22;52872;52.994;6.940;2024-02-28T05:33:50;3.00;99.90
66088;DHT22;52872;52.994;6.940;2024-02-28T05:36:18;3.10;99.90
66088;DHT22;52872;52.994;6.940;2024-02-28T05:38:48;3.10;99.90
66088;DHT22;52872;52.994;6.940;2024-02-28T05:41:16;3.10;99.90
66088;DHT22;52872;52.994;6.940;2024-02-28T05:43:44;3.20;99.90
66088;DHT22;52872;52.994;6.940;2024-02-28T05:46:13;3.10;99.90
66088;DHT22;52872;52.994;6.940;2024-02-28T05:48:41;3.20;99.90
66088;DHT22;52872;52.994;6.940;2024-02-28T05:51:08;3.20;99.90
66088;DHT22;52872;52.994;6.940;2024-02-28T05:53:35;3.20;99.90
66088;DHT22;52872;52.994;6.940;2024-02-28T05:56:03;3.20;99.90
66088;DHT22;52872;52.994;6.940;2024-02-28T05:58:30;3.20;99.90
66088;DHT22;52872;52.994;6.940;2024-02-28T06:00:57;3.20;99.90
66088;DHT22;52872;52.994;6.940;2024-02-28T06:03:24;3.20;99.90
66088;DHT22;52872;52.994;6.940;2024-02-28T06:05:52;3.40;99.90
66088;DHT22;52872;52.994;6.940;2024-02-28T06:08:19;3.30;99.90
66088;DHT22;52872;52.994;6.940;2024-02-28T06:10:45;3.30;99.90
66088;DHT22;52872;52.994;6.940;2024-02-28T06:13:13;3.40;99.90
66088;DHT22;52872;52.994;6.940;2024-02-28T06:15:40;3.30;99.90
66088;DHT22;52872;52.994;6.940;2024-02-28T06:18:09;3.30;99.90
66088;DHT22;52872;52.994;6.940;2024-02-28T06:20:36;3.40;99.90
66088;DHT22;52872;52.994;6.940;2024-02-28T06:23:04;3.30;99.90
66088;DHT22;52872;52.994;6.940;2024-02-28T06:25:35;3.30;99.90
66088;DHT22;52872;52.994;6.940;2024-02-28T06:28:02;3.30;99.90
66088;DHT22;52872;52.994;6.940;2024-02-28T06:30:33;3.40;99.90
66088;DHT22;52872;52.994;6.940;2024-02-28T06:33:01;3.40;99.90
66088;DHT22;52872;52.994;6.940;2024-02-28T06:35:28;3.40;99.90
66088;DHT22;52872;52.994;6.940;2024-02-28T06:37:55;3.40;99.90
66088;DHT22;52872;52.994;6.940;2024-02-28T06:40:22;3.50;99.90
66088;DHT22;52872;52.994;6.940;2024-02-28T06:42:49;3.50;99.90
66088;DHT22;52872;52.994;6.940;2024-02-28T06:45:16;3.60;99.90
66088;DHT22;52872;52.994;6.940;2024-02-28T06:47:44;3.60;99.90
66088;DHT22;52872;52.994;6.940;2024-02-28T06:50:12;3.70;99.90
66088;DHT22;52872;52.994;6.940;2024-02-28T06:52:38;3.70;99.90
66088;DHT22;52872;52.994;6.940;2024-02-28T06:55:06;3.70;99.90
66088;DHT22;52872;52.994;6.940;2024-02-28T06:57:37;3.70;99.90
66088;DHT22;52872;52.994;6.940;2024-02-28T07:00:06;3.70;99.90
66088;DHT22;52872;52.994;6.940;2024-02-28T07:02:35;3.70;99.90
66088;DHT22;52872;52.994;6.940;2024-02-28T07:05:03;3.70;99.90
66088;DHT22;52872;52.994;6.940;2024-02-28T07:07:31;3.70;99.90
66088;DHT22;52872;52.994;6.940;2024-02-28T07:09:58;3.70;99.90
66088;DHT22;52872;52.994;6.940;2024-02-28T07:12:25;3.70;99.90
66088;DHT22;52872;52.994;6.940;2024-02-28T07:14:52;3.80;99.90
66088;DHT22;52872;52.994;6.940;2024-02-28T07:17:19;3.80;99.90
66088;DHT22;52872;52.994;6.940;2024-02-28T07:19:46;3.80;99.90
66088;DHT22;52872;52.994;6.940;2024-02-28T07:22:13;3.90;99.90
66088;DHT22;52872;52.994;6.940;2024-02-28T07:24:40;3.90;99.90
66088;DHT22;52872;52.994;6.940;2024-02-28T07:27:08;3.90;99.90
66088;DHT22;52872;52.994;6.940;2024-02-28T07:29:36;4.10;99.90
66088;DHT22;52872;52.994;6.940;2024-02-28T07:32:04;4.10;99.90
66088;DHT22;52872;52.994;6.940;2024-02-28T07:34:31;4.00;99.90
66088;DHT22;52872;52.994;6.940;2024-02-28T07:36:58;4.00;99.90
66088;DHT22;52872;52.994;6.940;2024-02-28T07:39:25;4.10;99.90
66088;DHT22;52872;52.994;6.940;2024-02-28T07:41:52;4.20;99.90
66088;DHT22;52872;52.994;6.940;2024-02-28T07:44:21;4.20;99.90
66088;DHT22;52872;52.994;6.940;2024-02-28T07:46:48;4.20;99.90
66088;DHT22;52872;52.994;6.940;2024-02-28T07:49:17;4.30;99.90
66088;DHT22;52872;52.994;6.940;2024-02-28T07:51:45;4.40;99.90
66088;DHT22;52872;52.994;6.940;2024-02-28T07:54:12;4.40;99.90
66088;DHT22;52872;52.994;6.940;2024-02-28T07:56:39;4.50;99.90
66088;DHT22;52872;52.994;6.940;2024-02-28T07:59:06;4.60;99.90
66088;DHT22;52872;52.994;6.940;2024-02-28T08:01:33;4.80;99.90
66088;DHT22;52872;52.994;6.940;2024-02-28T08:04:01;4.90;99.90
66088;DHT22;52872;52.994;6.940;2024-02-28T08:06:29;5.00;99.90
66088;DHT22;52872;52.994;6.940;2024-02-28T08:08:56;5.00;99.90
66088;DHT22;52872;52.994;6.940;2024-02-28T08:11:23;4.90;99.90
66088;DHT22;52872;52.994;6.940;2024-02-28T08:13:51;4.90;99.90
66088;DHT22;52872;52.994;6.940;2024-02-28T08:16:19;5.00;99.90
66088;DHT22;52872;52.994;6.940;2024-02-28T08:18:46;4.90;99.90
66088;DHT22;52872;52.994;6.940;2024-02-28T08:21:12;4.90;99.90
66088;DHT22;52872;52.994;6.940;2024-02-28T08:23:39;4.90;99.90
66088;DHT22;52872;52.994;6.940;2024-02-28T08:26:07;4.90;99.90
66088;DHT22;52872;52.994;6.940;2024-02-28T08:28:33;4.90;99.90
66088;DHT22;52872;52.994;6.940;2024-02-28T08:31:00;5.00;99.90
66088;DHT22;52872;52.994;6.940;2024-02-28T08:33:27;5.00;99.90
66088;DHT22;52872;52.994;6.940;2024-02-28T08:35:55;5.10;99.90
66088;DHT22;52872;52.994;6.940;2024-02-28T08:38:22;5.10;99.90
66088;DHT22;52872;52.994;6.940;2024-02-28T08:40:49;5.10;99.90
66088;DHT22;52872;52.994;6.940;2024-02-28T08:43:15;5.10;99.90
66088;DHT22;52872;52.994;6.940;2024-02-28T08:45:42;5.00;99.90
66088;DHT22;52872;52.994;6.940;2024-02-28T08:48:09;5.00;99.90
66088;DHT22;52872;52.994;6.940;2024-02-28T08:50:36;5.00;99.90
66088;DHT22;52872;52.994;6.940;2024-02-28T08:53:04;5.00;99.90
66088;DHT22;52872;52.994;6.940;2024-02-28T08:55:30;5.00;99.90
66088;DHT22;52872;52.994;6.940;2024-02-28T08:57:58;5.00;99.90
66088;DHT22;52872;52.994;6.940;2024-02-28T09:00:25;5.10;99.90
66088;DHT22;52872;52.994;6.940;2024-02-28T09:02:52;5.10;99.90
66088;DHT22;52872;52.994;6.940;2024-02-28T09:05:19;5.10;99.90
66088;DHT22;52872;52.994;6.940;2024-02-28T09:07:46;5.10;99.90
66088;DHT22;52872;52.994;6.940;2024-02-28T09:10:18;5.10;99.90
66088;DHT22;52872;52.994;6.940;2024-02-28T09:12:51;5.20;99.90
66088;DHT22;52872;52.994;6.940;2024-02-28T09:15:19;5.20;99.90
66088;DHT22;52872;52.994;6.940;2024-02-28T09:17:46;5.30;99.90
66088;DHT22;52872;52.994;6.940;2024-02-28T09:20:13;5.30;99.90
66088;DHT22;52872;52.994;6.940;2024-02-28T09:22:41;5.40;99.90
66088;DHT22;52872;52.994;6.940;2024-02-28T09:25:08;5.40;99.90
66088;DHT22;52872;52.994;6.940;2024-02-28T09:27:37;5.40;99.90
66088;DHT22;52872;52.994;6.940;2024-02-28T09:30:04;5.50;99.90
66088;DHT22;52872;52.994;6.940;2024-02-28T09:32:32;5.50;99.90
66088;DHT22;52872;52.994;6.940;2024-02-28T09:34:59;5.50;99.90
66088;DHT22;52872;52.994;6.940;2024-02-28T09:37:26;5.60;99.90
66088;DHT22;52872;52.994;6.940;2024-02-28T09:39:53;5.70;99.90
66088;DHT22;52872;52.994;6.940;2024-02-28T09:42:20;5.80;99.90
66088;DHT22;52872;52.994;6.940;2024-02-28T09:44:47;5.70;99.90
66088;DHT22;52872;52.994;6.940;2024-02-28T09:47:15;5.80;99.90
66088;DHT22;52872;52.994;6.940;2024-02-28T09:49:42;5.90;99.90
66088;DHT22;52872;52.994;6.940;2024-02-28T09:52:11;5.90;99.90
66088;DHT22;52872;52.994;6.940;2024-02-28T09:54:38;5.90;99.90
66088;DHT22;52872;52.994;6.940;2024-02-28T09:57:05;6.00;99.90
66088;DHT22;52872;52.994;6.940;2024-02-28T09:59:33;5.90;99.90
66088;DHT22;52872;52.994;6.940;2024-02-28T10:02:10;5.90;99.90
66088;DHT22;52872;52.994;6.940;2024-02-28T10:04:39;5.90;99.90
66088;DHT22;52872;52.994;6.940;2024-02-28T10:07:13;5.90;99.90
66088;DHT22;52872;52.994;6.940;2024-02-28T10:09:43;6.00;99.90
66088;DHT22;52872;52.994;6.940;2024-02-28T10:12:10;5.90;99.90
66088;DHT22;52872;52.994;6.940;2024-02-28T10:14:37;5.80;99.90
66088;DHT22;52872;52.994;6.940;2024-02-28T10:17:05;5.80;99.90
66088;DHT22;52872;52.994;6.940;2024-02-28T10:19:32;5.80;99.90
66088;DHT22;52872;52.994;6.940;2024-02-28T10:21:59;5.90;99.90
66088;DHT22;52872;52.994;6.940;2024-02-28T10:24:28;6.10;99.90
66088;DHT22;52872;52.994;6.940;2024-02-28T10:26:55;6.40;99.90
66088;DHT22;52872;52.994;6.940;2024-02-28T10:29:23;6.60;99.90
66088;DHT22;52872;52.994;6.940;2024-02-28T10:31:51;6.80;99.90
66088;DHT22;52872;52.994;6.940;2024-02-28T10:34:18;7.00;99.90
66088;DHT22;52872;52.994;6.940;2024-02-28T10:36:46;7.20;99.90
66088;DHT22;52872;52.994;6.940;2024-02-28T10:39:14;7.30;99.90
66088;DHT22;52872;52.994;6.940;2024-02-28T10:41:41;7.40;99.90
66088;DHT22;52872;52.994;6.940;2024-02-28T10:44:09;7.60;99.90
66088;DHT22;52872;52.994;6.940;2024-02-28T10:46:40;7.70;99.90
66088;DHT22;52872;52.994;6.940;2024-02-28T10:49:09;7.70;99.90
66088;DHT22;52872;52.994;6.940;2024-02-28T10:51:36;7.70;99.90
66088;DHT22;52872;52.994;6.940;2024-02-28T10:54:11;7.70;99.90
66088;DHT22;52872;52.994;6.940;2024-02-28T10:56:39;7.60;99.90
66088;DHT22;52872;52.994;6.940;2024-02-28T10:59:09;7.70;99.90
66088;DHT22;52872;52.994;6.940;2024-02-28T11:01:41;7.90;99.90
66088;DHT22;52872;52.994;6.940;2024-02-28T11:04:10;8.10;99.90
66088;DHT22;52872;52.994;6.940;2024-02-28T11:06:48;8.20;99.90
66088;DHT22;52872;52.994;6.940;2024-02-28T11:09:21;8.30;99.90
66088;DHT22;52872;52.994;6.940;2024-02-28T11:11:54;8.40;99.90
66088;DHT22;52872;52.994;6.940;2024-02-28T11:14:22;8.30;99.90
66088;DHT22;52872;52.994;6.940;2024-02-28T11:17:05;8.20;99.90
66088;DHT22;52872;52.994;6.940;2024-02-28T11:19:33;8.00;99.90
66088;DHT22;52872;52.994;6.940;2024-02-28T11:22:01;7.90;99.90
66088;DHT22;52872;52.994;6.940;2024-02-28T11:24:33;7.90;99.90
66088;DHT22;52872;52.994;6.940;2024-02-28T11:27:01;7.90;99.90
66088;DHT22;52872;52.994;6.940;2024-02-28T11:29:32;8.00;99.90
66088;DHT22;52872;52.994;6.940;2024-02-28T11:31:59;8.10;99.90
66088;DHT22;52872;52.994;6.940;2024-02-28T11:34:26;8.30;99.90
66088;DHT22;52872;52.994;6.940;2024-02-28T11:36:53;8.30;99.90
66088;DHT22;52872;52.994;6.940;2024-02-28T11:39:23;8.50;99.90
66088;DHT22;52872;52.994;6.940;2024-02-28T11:41:52;8.40;99.90
66088;DHT22;52872;52.994;6.940;2024-02-28T11:44:19;8.50;99.90
66088;DHT22;52872;52.994;6.940;2024-02-28T11:46:48;8.50;99.90
66088;DHT22;52872;52.994;6.940;2024-02-28T11:49:16;8.50;99.90
66088;DHT22;52872;52.994;6.940;2024-02-28T11:51:44;8.60;99.90
66088;DHT22;52872;52.994;6.940;2024-02-28T11:54:11;8.80;99.90
66088;DHT22;52872;52.994;6.940;2024-02-28T11:56:39;8.90;99.90
66088;DHT22;52872;52.994;6.940;2024-02-28T11:59:07;9.00;99.90
66088;DHT22;52872;52.994;6.940;2024-02-28T12:01:44;9.20;99.90
66088;DHT22;52872;52.994;6.940;2024-02-28T12:04:11;9.20;99.90
66088;DHT22;52872;52.994;6.940;2024-02-28T12:06:39;9.10;99.90
66088;DHT22;52872;52.994;6.940;2024-02-28T12:09:09;9.00;99.90
66088;DHT22;52872;52.994;6.940;2024-02-28T12:11:37;9.00;99.90
66088;DHT22;52872;52.994;6.940;2024-02-28T12:14:05;8.90;99.90
66088;DHT22;52872;52.994;6.940;2024-02-28T12:16:42;9.00;99.90
66088;DHT22;52872;52.994;6.940;2024-02-28T12:19:12;9.00;99.90
66088;DHT22;52872;52.994;6.940;2024-02-28T12:21:40;9.00;99.90
66088;DHT22;52872;52.994;6.940;2024-02-28T12:24:08;9.00;99.90
66088;DHT22;52872;52.994;6.940;2024-02-28T12:26:38;9.10;99.90
66088;DHT22;52872;52.994;6.940;2024-02-28T12:29:06;9.30;99.90
66088;DHT22;52872;52.994;6.940;2024-02-28T12:31:33;9.50;99.90
66088;DHT22;52872;52.994;6.940;2024-02-28T12:34:00;9.40;99.90
66088;DHT22;52872;52.994;6.940;2024-02-28T12:36:27;9.50;99.90
66088;DHT22;52872;52.994;6.940;2024-02-28T12:38:54;9.60;99.90
66088;DHT22;52872;52.994;6.940;2024-02-28T12:41:22;9.60;99.90
66088;DHT22;52872;52.994;6.940;2024-02-28T12:43:49;9.60;99.90
66088;DHT22;52872;52.994;6.940;2024-02-28T12:46:16;9.60;99.90
66088;DHT22;52872;52.994;6.940;2024-02-28T12:48:43;9.50;99.90
66088;DHT22;52872;52.994;6.940;2024-02-28T12:54:01;9.20;99.90
66088;DHT22;52872;52.994;6.940;2024-02-28T12:56:28;9.10;99.90
66088;DHT22;52872;52.994;6.940;2024-02-28T12:58:55;9.00;99.90
66088;DHT22;52872;52.994;6.940;2024-02-28T13:01:22;8.90;99.90
66088;DHT22;52872;52.994;6.940;2024-02-28T13:03:49;8.70;99.90
66088;DHT22;52872;52.994;6.940;2024-02-28T13:06:16;8.70;99.90
66088;DHT22;52872;52.994;6.940;2024-02-28T13:08:43;8.60;99.90
66088;DHT22;52872;52.994;6.940;2024-02-28T13:11:11;8.50;99.90
66088;DHT22;52872;52.994;6.940;2024-02-28T13:13:38;8.50;99.90
66088;DHT22;52872;52.994;6.940;2024-02-28T13:16:05;8.60;99.90
66088;DHT22;52872;52.994;6.940;2024-02-28T13:18:32;8.50;99.90
66088;DHT22;52872;52.994;6.940;2024-02-28T13:20:59;8.50;99.90
66088;DHT22;52872;52.994;6.940;2024-02-28T13:23:26;8.60;99.90
66088;DHT22;52872;52.994;6.940;2024-02-28T13:25:53;8.50;99.90
66088;DHT22;52872;52.994;6.940;2024-02-28T13:28:20;8.50;99.90
66088;DHT22;52872;52.994;6.940;2024-02-28T13:30:47;8.50;99.90
66088;DHT22;52872;52.994;6.940;2024-02-28T13:33:15;8.50;99.90
66088;DHT22;52872;52.994;6.940;2024-02-28T13:35:42;8.50;99.90
66088;DHT22;52872;52.994;6.940;2024-02-28T13:38:09;8.60;99.90
66088;DHT22;52872;52.994;6.940;2024-02-28T13:40:36;8.50;99.90
66088;DHT22;52872;52.994;6.940;2024-02-28T13:43:04;8.50;99.90
66088;DHT22;52872;52.994;6.940;2024-02-28T13:45:31;8.50;99.90
66088;DHT22;52872;52.994;6.940;2024-02-28T13:47:58;8.50;99.90
66088;DHT22;52872;52.994;6.940;2024-02-28T13:50:25;8.50;99.90
66088;DHT22;52872;52.994;6.940;2024-02-28T13:52:58;8.60;99.90
66088;DHT22;52872;52.994;6.940;2024-02-28T13:55:25;8.60;99.90
66088;DHT22;52872;52.994;6.940;2024-02-28T13:57:52;8.60;99.90
66088;DHT22;52872;52.994;6.940;2024-02-28T14:00:19;8.60;99.90
66088;DHT22;52872;52.994;6.940;2024-02-28T14:02:46;8.50;99.90
66088;DHT22;52872;52.994;6.940;2024-02-28T14:05:13;8.40;99.90
66088;DHT22;52872;52.994;6.940;2024-02-28T14:07:40;8.40;99.90
66088;DHT22;52872;52.994;6.940;2024-02-28T14:10:07;8.30;99.90
66088;DHT22;52872;52.994;6.940;2024-02-28T14:12:38;8.20;99.90
66088;DHT22;52872;52.994;6.940;2024-02-28T14:15:05;8.20;99.90
66088;DHT22;52872;52.994;6.940;2024-02-28T14:17:33;8.20;99.90
66088;DHT22;52872;52.994;6.940;2024-02-28T14:20:00;8.20;99.90
66088;DHT22;52872;52.994;6.940;2024-02-28T14:22:27;8.20;99.90
66088;DHT22;52872;52.994;6.940;2024-02-28T14:24:54;8.30;99.90
66088;DHT22;52872;52.994;6.940;2024-02-28T14:27:21;8.30;99.90
66088;DHT22;52872;52.994;6.940;2024-02-28T14:29:48;8.30;99.90
66088;DHT22;52872;52.994;6.940;2024-02-28T14:32:15;8.30;99.90
66088;DHT22;52872;52.994;6.940;2024-02-28T14:34:43;8.30;99.90
66088;DHT22;52872;52.994;6.940;2024-02-28T14:37:10;8.30;99.90
66088;DHT22;52872;52.994;6.940;2024-02-28T14:39:37;8.30;99.90
66088;DHT22;52872;52.994;6.940;2024-02-28T14:42:04;8.40;99.90
66088;DHT22;52872;52.994;6.940;2024-02-28T14:44:31;8.50;99.90
66088;DHT22;52872;52.994;6.940;2024-02-28T14:46:58;8.70;99.90
66088;DHT22;52872;52.994;6.940;2024-02-28T14:49:25;8.70;99.90
66088;DHT22;52872;52.994;6.940;2024-02-28T14:51:52;8.70;99.90
66088;DHT22;52872;52.994;6.940;2024-02-28T14:54:19;8.80;99.90
66088;DHT22;52872;52.994;6.940;2024-02-28T14:56:49;8.80;99.90
66088;DHT22;52872;52.994;6.940;2024-02-28T14:59:16;8.80;99.90
66088;DHT22;52872;52.994;6.940;2024-02-28T15:01:43;8.90;99.90
66088;DHT22;52872;52.994;6.940;2024-02-28T15:04:10;9.00;99.90
66088;DHT22;52872;52.994;6.940;2024-02-28T15:06:40;9.10;99.90
66088;DHT22;52872;52.994;6.940;2024-02-28T15:09:08;9.20;99.90
66088;DHT22;52872;52.994;6.940;2024-02-28T15:11:36;9.10;99.90
66088;DHT22;52872;52.994;6.940;2024-02-28T15:14:03;9.00;99.90
66088;DHT22;52872;52.994;6.940;2024-02-28T15:16:30;8.90;99.90
66088;DHT22;52872;52.994;6.940;2024-02-28T15:18:57;8.80;99.90
66088;DHT22;52872;52.994;6.940;2024-02-28T15:21:24;8.70;99.90
66088;DHT22;52872;52.994;6.940;2024-02-28T15:23:52;8.60;99.90
66088;DHT22;52872;52.994;6.940;2024-02-28T15:26:19;8.70;99.90
66088;DHT22;52872;52.994;6.940;2024-02-28T15:28:51;8.80;99.90
66088;DHT22;52872;52.994;6.940;2024-02-28T15:31:18;8.70;99.90
66088;DHT22;52872;52.994;6.940;2024-02-28T15:33:45;8.60;99.90
66088;DHT22;52872;52.994;6.940;2024-02-28T15:36:12;8.60;99.90
66088;DHT22;52872;52.994;6.940;2024-02-28T15:38:40;8.50;99.90
66088;DHT22;52872;52.994;6.940;2024-02-28T15:41:07;8.40;99.90
66088;DHT22;52872;52.994;6.940;2024-02-28T15:43:34;8.40;99.90
66088;DHT22;52872;52.994;6.940;2024-02-28T15:46:02;8.30;99.90
66088;DHT22;52872;52.994;6.940;2024-02-28T15:48:29;8.30;99.90
66088;DHT22;52872;52.994;6.940;2024-02-28T15:50:57;8.30;99.90